Terminal Aerodrome Forecast
Issued by NWS Topeka, KS

Home | Current Version | Previous Version | Text Only | Print | Product List | Glossary Off
Versions: 1 2 3 4 5 6 7 8 9 10 11 12 13 14

185
FTUS43 KTOP 242320
TAFTOP
TAF
KTOP 242320Z 2500/2524 18014G24KT P6SM BKN250
     FM250200 17009KT P6SM SCT250
     FM250500 16010KT P6SM BKN150 WS020/19045KT
      TEMPO 2509/2511 -SHRA
     FM251300 15011KT P6SM BKN090=

USA.gov is the U.S. government's official web portal to all federal, state and local government web resources and services.